createdAt,value
2023-03-18T00:01:17.200Z,7.13
2023-03-18T00:08:52.563Z,7.55
2023-03-18T00:16:28.478Z,7.20
2023-03-18T00:24:02.733Z,6.82
2023-03-18T00:31:39.225Z,6.33
2023-03-18T00:39:13.505Z,8.90
2023-03-18T00:46:49.622Z,7.00
2023-03-18T00:54:24.740Z,6.65
2023-03-18T01:02:00.123Z,6.53
2023-03-18T01:09:34.508Z,7.15
2023-03-18T01:17:11.455Z,6.63
2023-03-18T01:24:46.403Z,6.10
2023-03-18T01:39:56.534Z,6.75
2023-03-18T01:55:27.486Z,5.03
2023-03-18T02:03:04.997Z,5.95
2023-03-18T02:10:39.894Z,5.47
2023-03-18T02:25:57.671Z,5.20
2023-03-18T02:33:36.732Z,5.00
2023-03-18T02:41:15.770Z,5.45
2023-03-18T02:48:51.520Z,4.72
2023-03-18T02:56:26.703Z,4.63
2023-03-18T03:04:02.636Z,4.65
2023-03-18T03:11:37.339Z,5.22
2023-03-18T03:19:12.831Z,4.63
2023-03-18T03:34:39.648Z,4.72
2023-03-18T03:42:13.588Z,4.85
2023-03-18T03:49:48.998Z,5.18
2023-03-18T03:57:24.198Z,4.97
2023-03-18T04:05:00.505Z,5.32
2023-03-18T04:12:34.551Z,4.85
2023-03-18T04:20:12.341Z,4.57
2023-03-18T04:27:46.577Z,4.93
2023-03-18T04:35:24.480Z,4.97
2023-03-18T04:42:58.361Z,4.43
2023-03-18T04:50:34.509Z,4.90
2023-03-18T04:58:08.684Z,5.25
2023-03-18T05:05:44.174Z,5.90
2023-03-18T05:13:18.719Z,4.57
2023-03-18T05:20:55.077Z,4.50
2023-03-18T05:28:29.350Z,4.63
2023-03-18T05:36:04.949Z,4.83
2023-03-18T05:43:38.960Z,5.50
2023-03-18T05:51:15.031Z,5.20
2023-03-18T05:58:50.016Z,5.30
2023-03-18T06:13:59.838Z,5.37
2023-03-18T06:21:36.235Z,5.20
2023-03-18T06:29:10.958Z,4.78
2023-03-18T06:36:46.284Z,4.80
2023-03-18T06:44:21.119Z,4.47
2023-03-18T06:59:30.657Z,5.13
2023-03-18T07:07:06.954Z,5.30
2023-03-18T07:14:41.248Z,5.03
2023-03-18T07:22:17.344Z,5.93
2023-03-18T07:29:51.486Z,5.13
2023-03-18T07:37:26.778Z,5.10
2023-03-18T07:45:00.638Z,5.78
2023-03-18T07:52:36.098Z,5.72
2023-03-18T08:00:12.484Z,5.57
2023-03-18T08:07:48.672Z,5.13
2023-03-18T08:15:23.501Z,5.57
2023-03-18T08:22:58.896Z,5.50
2023-03-18T08:30:32.797Z,5.43
2023-03-18T08:45:59.707Z,5.45
2023-03-18T08:53:35.813Z,5.30
2023-03-18T09:01:12.061Z,5.50
2023-03-18T09:08:48.368Z,5.70
2023-03-18T09:16:47.563Z,5.60
2023-03-18T09:40:16.295Z,5.70
2023-03-18T09:48:03.854Z,6.00
2023-03-18T09:55:46.740Z,5.32
2023-03-18T10:03:29.076Z,5.32
2023-03-18T10:11:09.613Z,5.10
2023-03-18T10:18:45.145Z,4.25
2023-03-18T10:34:22.206Z,5.05
2023-03-18T10:42:01.922Z,4.97
2023-03-18T10:49:39.959Z,4.88
2023-03-18T10:57:17.025Z,5.18
2023-03-18T11:04:55.567Z,4.25
2023-03-18T11:12:34.981Z,4.50
2023-03-18T11:36:19.530Z,3.92
2023-03-18T11:44:00.245Z,4.57
2023-03-18T11:59:55.911Z,3.92
2023-03-18T12:07:48.702Z,4.22
2023-03-18T12:15:37.309Z,4.07
2023-03-18T12:23:26.326Z,4.03
2023-03-18T12:31:19.912Z,4.25
2023-03-18T12:39:10.629Z,4.00
2023-03-18T12:46:50.250Z,4.55
2023-03-18T12:54:29.148Z,4.95
2023-03-18T13:02:41.426Z,4.45
2023-03-18T13:10:21.898Z,5.93
2023-03-18T13:18:01.701Z,5.30
2023-03-18T13:25:42.335Z,4.93
2023-03-18T13:33:36.485Z,5.18
2023-03-18T13:41:32.429Z,4.95
2023-03-18T13:49:19.412Z,5.22
2023-03-18T13:56:55.948Z,4.47
2023-03-18T14:04:33.818Z,4.28
2023-03-18T14:12:24.545Z,4.88
2023-03-18T14:20:07.264Z,4.32
2023-03-18T14:27:50.635Z,3.88
2023-03-18T14:35:29.851Z,3.15
2023-03-18T14:43:10.512Z,3.00
2023-03-18T14:50:49.015Z,3.38
2023-03-18T14:58:24.588Z,3.13
2023-03-18T15:06:02.731Z,2.88
2023-03-18T15:13:37.152Z,3.00
2023-03-18T15:21:16.851Z,1.83
2023-03-18T15:28:56.532Z,2.03
2023-03-18T15:36:33.113Z,2.65
2023-03-18T15:52:09.860Z,1.95
2023-03-18T15:59:45.665Z,2.10
2023-03-18T16:07:24.602Z,1.70
2023-03-18T16:14:58.688Z,2.10
2023-03-18T16:22:34.258Z,1.80
2023-03-18T16:30:17.684Z,2.10
2023-03-18T16:37:54.616Z,1.92
2023-03-18T16:45:31.438Z,2.30
2023-03-18T17:01:11.044Z,3.33
2023-03-18T17:08:46.816Z,3.33
2023-03-18T17:16:21.410Z,3.10
2023-03-18T17:23:57.309Z,4.17
2023-03-18T17:31:31.582Z,3.88
2023-03-18T17:39:07.875Z,6.40
2023-03-18T17:46:42.112Z,4.38
2023-03-18T17:54:20.578Z,7.87
2023-03-18T18:01:54.977Z,8.13
2023-03-18T18:09:30.412Z,7.47
2023-03-18T18:17:08.393Z,5.97
2023-03-18T18:24:45.224Z,5.50
2023-03-18T18:32:22.009Z,4.25
2023-03-18T18:47:48.834Z,5.20
2023-03-18T18:55:24.719Z,5.40
2023-03-18T19:10:52.784Z,5.50
2023-03-18T19:18:28.541Z,5.25
2023-03-18T19:26:05.849Z,6.53
2023-03-18T19:33:40.730Z,7.43
2023-03-18T19:49:18.818Z,8.57
2023-03-18T19:56:55.161Z,10.05
2023-03-18T20:04:30.783Z,9.95
2023-03-18T20:12:07.533Z,10.20
2023-03-18T20:19:41.667Z,9.80
2023-03-18T20:35:09.508Z,8.50
2023-03-18T20:50:36.788Z,8.45
2023-03-18T20:58:16.265Z,9.47
2023-03-18T21:05:50.440Z,9.43
2023-03-18T21:13:28.986Z,9.93
2023-03-18T21:21:04.730Z,9.35
2023-03-18T21:28:40.228Z,9.57
2023-03-18T21:36:14.475Z,9.60
2023-03-18T21:51:43.602Z,10.95
2023-03-18T22:06:52.921Z,12.70
2023-03-18T22:14:28.152Z,12.17
2023-03-18T22:22:02.085Z,11.50
2023-03-18T22:29:37.422Z,11.93
2023-03-18T22:37:19.978Z,12.93
2023-03-18T22:44:55.699Z,14.13
2023-03-18T22:52:31.420Z,13.00
2023-03-18T23:00:21.653Z,13.50
2023-03-18T23:07:56.721Z,12.90
2023-03-18T23:15:32.373Z,13.68
2023-03-18T23:23:06.571Z,12.75
2023-03-18T23:30:43.609Z,13.03
2023-03-18T23:38:17.669Z,12.27
2023-03-18T23:45:53.349Z,11.93
2023-03-18T23:53:27.443Z,11.07
